ADDS TAF Board (Experimental) INFO Settings
IDs: Format: Expanded Condensed

KLAX - Los Angeles Intl, CA, US

Issued at 1438 UTC 11 Feb 2016
Updated at: 1500 UTC 11 Feb 2016
Time1453Z 11/15Z 11/16Z 11/17Z 11/18Z 11/19Z 11/20Z 11/21Z 11/22Z 11/23Z 12/00Z 12/01Z 12/02Z 12/03Z
Type OBS PRVL PRVL PRVL PRVL PRVL PRVL PRVL PRVL PRVL PRVL PRVL PRVL PRVL
VIS 10 >6 >6 >6 >6 >6 >6 >6 >6 >6 >6 >6 >6 >6
CIG -- -- -- -- -- -- -- -- -- -- -- -- -- --
Cover CLR SKC SKC SKC SKC SKC SKC SKC SKC SKC SKC SKC SKC SKC
FltCat VFR VFR VFR VFR VFR VFR VFR VFR VFR VFR VFR VFR VFR VFR
WX -- -- -- -- -- -- -- -- -- -- -- -- -- --
WDir VRB 60 60 60 190 190 190 270 270 270 270 270 270 270
WSpd 0 7 7 7 6 6 6 10 10 10 10 10 10 10
WGst -- -- -- -- -- -- -- -- -- -- -- -- -- --
R06/24
XWnd VRB 3 3 3 -6 -6 -6 1 1 1 1 1 1 1
HWnd VRB 6 6 6 -2 -2 -2 -10 -10 -10 -10 -10 -10 -10
R07/25
XWnd VRB 3 3 3 -6 -6 -6 1 1 1 1 1 1 1
HWnd VRB 6 6 6 -2 -2 -2 -10 -10 -10 -10 -10 -10 -10

NOTE: TEMPO conditions in [brackets]. Keep in mind TEMPO conditions might be better (lower impact) than prevailing conditions.

Raw TAF
KLAX 111438Z 1115/1218 06007KT P6SM SKC
  FM111800 19006KT P6SM SKC
  FM112100 27010KT P6SM SKC
  FM120400 VRB03KT P6SM SKC


Raw METAR
KLAX 111453Z 00000KT 10SM CLR 18/M01 A3008 RMK AO2 SLP185 T01781006 53004
KLAX 111353Z 06003KT 10SM FEW200 16/00 A3007 RMK AO2 SLP181 T01610000
KLAX 111253Z 11003KT 10SM FEW200 14/02 A3007 RMK AO2 SLP180 T01440017
KLAX 111153Z 00000KT 10SM FEW200 17/01 A3007 RMK AO2 SLP181 T01670006 10194 20144 56004

METAR Board
Radar Display
Forecast Discussion

TAF Board Legend

Potential Impact
Threat None Slight Moderate High
Visibility (sm) ≥5.1 5.1>X≥3 3>X≥1 <1
Ceiling (100 ft) ≥30.1 30.1>X≥10 10>X≥5 <5
Wind Speed (kt) <10 10≤X<20 20≤X<30 ≥30
Wind Gust (kt) <15 15≤X<25 25≤X<35 ≥35
Weather No Wx Reported VCTS,-TS,-FZRA,SN TS,FZRA +TS,+FZRA,+SN